CheckWX is a tool to help pilots better visualize weather data.  It is not intended as a substitute for an official pre-flight weather briefing.

13:15:35 UTC

KPHL TAF
Philadelphia International Airport
Philadelphia, Pennsylvania, USA
KPHL 311258Z 3113/0118 07007KT P6SM SCT009 OVC015 TEMPO 3113/3115 2SM BR BKN008 FM312000 08008KT P6SM OVC025 FM010200 07006KT P6SM BKN035 FM010900 04006KT P6SM OVC025 FM011200 03006KT P6SM BKN035

Mar-31@
13:00 UTC

Mar-31 @ 13:00 UTC

Mar-31@
20:00 UTC

Mar-31 @ 20:00 UTC

TAF KPHL 311258Z 3113/0118 07007KT P6SM SCT009 OVC015
Wind
  • 070° at 7 KTS
Cloud Levels
  • Scattered at 900' AGL
  • Overcast at 1,500' AGL

Mar-31@
13:00 UTC

Mar-31 @ 13:00 UTC

Mar-31@
15:00 UTC

Mar-31 @ 15:00 UTC

TEMPO 3113/3115 2SM BR BKN008

Temporary

Temporary Changes expected for less than half the time period

Conditions
Mist
Cloud Levels
  • Broken at 800' AGL

Mar-31@
20:00 UTC

Mar-31 @ 20:00 UTC

Apr-1@
02:00 UTC

Apr-1 @ 02:00 UTC

FM312000 08008KT P6SM OVC025

From

From Standard forecast or significant change

Wind
  • 080° at 8 KTS
Cloud Levels
  • Overcast at 2,500' AGL

Apr-1@
02:00 UTC

Apr-1 @ 02:00 UTC

Apr-1@
09:00 UTC

Apr-1 @ 09:00 UTC

FM010200 07006KT P6SM BKN035

From

From Standard forecast or significant change

Wind
  • 070° at 6 KTS
Cloud Levels
  • Broken at 3,500' AGL

Apr-1@
09:00 UTC

Apr-1 @ 09:00 UTC

Apr-1@
12:00 UTC

Apr-1 @ 12:00 UTC

FM010900 04006KT P6SM OVC025

From

From Standard forecast or significant change

Wind
  • 040° at 6 KTS
Cloud Levels
  • Overcast at 2,500' AGL

Apr-1@
12:00 UTC

Apr-1 @ 12:00 UTC

Apr-1@
18:00 UTC

Apr-1 @ 18:00 UTC

FM011200 03006KT P6SM BKN035

From

From Standard forecast or significant change

Wind
  • 030° at 6 KTS
Cloud Levels
  • Broken at 3,500' AGL